Time;durP1;ratioP1;P1;durP2;ratioP2;P2;SDS_P1;SDS_P2;PMS_P1;PMS_P2;Temp;Humidity;BMP_temperature;BMP_pressure;BME280_temperature;BME280_humidity;BME280_pressure;Samples;Min_cycle;Max_cycle;Signal;HPM_P1;HPM_P2
2023/06/09 00:01:37;;;;;;;15.13;7.90;;;;;;;16.92;57.20;99761.25;5053030;28;20369;-58
2023/06/09 00:04:03;;;;;;;13.07;8.90;;;;;;;16.60;57.30;99716.91;5052809;28;20128;-58
2023/06/09 00:06:33;;;;;;;13.93;7.93;;;;;;;16.85;57.61;99773.75;5052840;28;20068;-59
2023/06/09 00:08:59;;;;;;;14.13;8.63;;;;;;;16.79;57.81;99770.69;5052555;28;20060;-64
2023/06/09 00:11:25;;;;;;;12.30;8.70;;;;;;;16.74;57.88;99762.25;5052320;28;20457;-58
2023/06/09 00:13:51;;;;;;;13.20;8.73;;;;;;;16.69;57.89;99761.03;5052873;28;20050;-58
2023/06/09 00:16:17;;;;;;;16.42;8.73;;;;;;;16.57;58.21;99749.69;5052373;28;20503;-59
2023/06/09 00:18:43;;;;;;;12.00;7.78;;;;;;;16.61;58.50;99751.03;5052700;28;20061;-59
2023/06/09 00:21:10;;;;;;;13.02;8.65;;;;;;;16.42;58.53;99728.72;5052326;28;20417;-58
2023/06/09 00:23:35;;;;;;;13.70;8.57;;;;;;;16.51;58.67;99745.78;5053040;28;20323;-57
2023/06/09 00:26:02;;;;;;;17.45;8.82;;;;;;;16.54;58.84;99750.03;5052807;28;20032;-58
2023/06/09 00:28:27;;;;;;;12.30;8.20;;;;;;;16.52;58.46;99747.50;5052621;28;20361;-58
2023/06/09 00:30:53;;;;;;;14.80;8.90;;;;;;;16.60;58.60;99747.50;5034697;28;20021;-58
2023/06/09 00:33:18;;;;;;;16.65;8.57;;;;;;;16.39;58.47;99695.78;5052978;28;20462;-58
2023/06/09 00:35:44;;;;;;;14.93;8.20;;;;;;;16.75;58.35;99746.84;5035128;28;20446;-65
2023/06/09 00:38:10;;;;;;;12.90;8.30;;;;;;;16.77;57.95;99742.97;5051970;28;20032;-59
2023/06/09 00:40:35;;;;;;;14.38;8.18;;;;;;;16.79;58.00;99749.06;5051986;28;20029;-58
2023/06/09 00:43:01;;;;;;;9.60;7.47;;;;;;;16.79;58.23;99759.03;5052589;28;20029;-58
2023/06/09 00:45:26;;;;;;;12.40;7.65;;;;;;;16.78;57.87;99752.78;5052402;28;20041;-60
2023/06/09 00:47:52;;;;;;;12.50;8.60;;;;;;;16.58;57.90;99725.22;5051763;28;20452;-56
2023/06/09 00:50:19;;;;;;;13.52;8.30;;;;;;;16.72;58.05;99753.44;5034394;28;20059;-58
2023/06/09 00:52:46;;;;;;;17.90;7.80;;;;;;;16.65;58.04;99749.72;5052277;28;20025;-66
2023/06/09 00:55:12;;;;;;;14.68;7.80;;;;;;;16.68;58.13;99752.09;5052498;28;20468;-58
2023/06/09 00:57:39;;;;;;;14.23;8.30;;;;;;;16.59;58.19;99740.41;5051507;28;20142;-59
2023/06/09 01:00:06;;;;;;;13.18;7.60;;;;;;;16.68;58.45;99752.09;5051730;28;20025;-58
2023/06/09 01:02:38;;;;;;;13.45;7.82;;;;;;;16.65;58.15;99752.44;5052387;28;20029;-58
2023/06/09 01:05:08;;;;;;;14.05;8.45;;;;;;;16.73;58.16;99752.44;5052355;28;20029;-57
2023/06/09 01:07:54;;;;;;;17.35;8.60;;;;;;;16.86;57.96;99753.78;5051545;28;20211;-60
2023/06/09 01:10:38;;;;;;;14.48;8.38;;;;;;;16.84;57.73;99751.28;5051382;28;20032;-58
2023/06/09 01:13:25;;;;;;;12.45;8.15;;;;;;;16.83;57.93;99756.84;5052421;28;20067;-54
2023/06/09 01:15:57;;;;;;;11.05;8.32;;;;;;;16.72;58.27;99753.44;5051834;28;20029;-60
2023/06/09 01:18:25;;;;;;;10.57;7.53;;;;;;;16.59;58.69;99743.13;5051349;28;20510;-59
2023/06/09 01:21:00;;;;;;;15.32;8.35;;;;;;;16.63;58.65;99757.13;5051776;28;20048;-57
2023/06/09 01:23:44;;;;;;;14.45;8.15;;;;;;;16.60;58.77;99749.34;5051291;28;20025;-60
2023/06/09 01:26:14;;;;;;;14.68;8.27;;;;;;;16.52;59.14;99754.75;5017676;28;20037;-59
2023/06/09 01:28:41;;;;;;;12.43;8.13;;;;;;;16.46;59.16;99748.13;5051474;28;20051;-58
2023/06/09 01:31:11;;;;;;;14.85;8.30;;;;;;;16.41;59.31;99750.50;5051739;28;20098;-56
2023/06/09 01:33:37;;;;;;;15.88;8.48;;;;;;;16.36;59.39;99759.94;5051243;28;20448;-54
2023/06/09 01:36:04;;;;;;;14.13;7.63;;;;;;;16.38;59.16;99762.47;5051187;28;20090;-58
2023/06/09 01:38:30;;;;;;;12.20;8.07;;;;;;;16.19;59.34;99729.31;5051906;28;20352;-60
2023/06/09 01:40:56;;;;;;;10.63;7.28;;;;;;;16.32;59.34;99752.31;5051274;28;20090;-56
2023/06/09 01:43:21;;;;;;;10.98;7.90;;;;;;;16.33;59.41;99757.56;5051516;28;20021;-58
2023/06/09 01:45:47;;;;;;;12.88;7.82;;;;;;;16.31;59.50;99756.03;5052508;28;20041;-56
2023/06/09 01:48:49;;;;;;;12.18;8.05;;;;;;;16.45;59.34;99760.81;5051253;28;20036;-60
2023/06/09 01:51:27;;;;;;;10.25;7.78;;;;;;;16.38;59.31;99758.94;5051165;28;20040;-59
2023/06/09 01:53:58;;;;;;;14.48;8.10;;;;;;;16.39;59.23;99756.03;5052078;28;20070;-58
2023/06/09 01:56:35;;;;;;;13.20;7.70;;;;;;;16.45;59.29;99755.41;5031362;28;20052;-60
2023/06/09 01:59:06;;;;;;;10.85;7.97;;;;;;;16.43;59.28;99748.47;5045331;28;20094;-59
2023/06/09 02:01:33;;;;;;;11.00;8.23;;;;;;;16.43;58.86;99748.47;5051846;28;20025;-56
2023/06/09 03:10:11;;;;;;;13.27;7.03;;;;;;;22.68;42.61;99728.69;5047679;28;20143;-58
2023/06/09 03:12:36;;;;;;;14.77;7.43;;;;;;;23.22;41.22;99713.22;5053597;28;20512;-58
2023/06/09 03:15:02;;;;;;;9.38;7.45;;;;;;;23.62;39.79;99701.44;5053957;28;20429;-59
2023/06/09 03:17:33;;;;;;;11.95;7.20;;;;;;;24.20;39.17;99724.44;5036582;28;20037;-59
2023/06/09 03:19:58;;;;;;;13.80;7.40;;;;;;;24.36;38.48;99729.41;5035961;28;20124;-59
2023/06/09 03:22:26;;;;;;;11.90;7.20;;;;;;;24.59;37.89;99741.72;5054235;28;20037;-59
2023/06/09 03:24:52;;;;;;;10.80;7.20;;;;;;;24.79;37.11;99727.94;5053870;28;20061;-60
2023/06/09 03:27:17;;;;;;;11.18;7.10;;;;;;;24.85;37.16;99725.41;5053410;28;20061;-60
2023/06/09 03:29:43;;;;;;;12.93;6.75;;;;;;;24.86;37.44;99727.09;5035802;28;20075;-60
2023/06/09 03:32:08;;;;;;;13.63;6.95;;;;;;;25.01;36.73;99735.00;5035823;28;20387;-59
2023/06/09 03:34:34;;;;;;;11.27;6.93;;;;;;;25.37;36.49;99728.81;5053560;28;20048;-60
2023/06/09 03:37:00;;;;;;;13.65;6.93;;;;;;;25.45;35.99;99724.09;5053409;28;20025;-62
2023/06/09 03:39:25;;;;;;;10.43;6.65;;;;;;;25.34;36.24;99734.75;5035839;28;20056;-65
2023/06/09 03:41:54;;;;;;;13.70;6.72;;;;;;;25.36;35.77;99732.59;5053337;28;20373;-60
2023/06/09 03:44:21;;;;;;;9.57;6.60;;;;;;;25.58;35.92;99739.59;5053241;28;20119;-59
2023/06/09 03:46:47;;;;;;;11.45;6.80;;;;;;;25.84;34.78;99738.53;5053012;28;20089;-57
2023/06/09 03:49:12;;;;;;;11.48;6.90;;;;;;;26.37;34.16;99745.31;5053287;28;20029;-59
2023/06/09 03:51:38;;;;;;;10.60;6.72;;;;;;;26.99;32.96;99732.44;5052366;28;20048;-60
2023/06/09 03:54:03;;;;;;;9.77;6.35;;;;;;;27.55;32.21;99729.47;5035256;28;20033;-59
2023/06/09 03:56:29;;;;;;;15.25;7.25;;;;;;;28.16;30.85;99733.84;5053001;28;20037;-62
2023/06/09 03:58:54;;;;;;;10.68;6.13;;;;;;;28.73;30.33;99727.53;5053161;28;20064;-61
2023/06/09 04:01:21;;;;;;;12.88;6.10;;;;;;;29.30;28.95;99724.94;5051509;28;20025;-60
2023/06/09 04:03:46;;;;;;;11.10;6.32;;;;;;;29.91;28.15;99730.59;5051925;28;20763;-59
2023/06/09 04:06:12;;;;;;;10.27;6.88;;;;;;;30.31;27.45;99745.22;5052844;28;20090;-58
2023/06/09 04:08:38;;;;;;;8.85;6.35;;;;;;;30.72;26.74;99744.88;5051929;28;20025;-61
2023/06/09 04:11:03;;;;;;;9.73;5.88;;;;;;;30.77;26.52;99758.72;5051914;28;20079;-62
2023/06/09 04:13:29;;;;;;;11.23;6.50;;;;;;;30.82;26.66;99722.03;5052444;28;20033;-59
2023/06/09 04:15:55;;;;;;;9.60;6.55;;;;;;;31.24;25.87;99756.44;5035037;28;20107;-62
2023/06/09 04:18:20;;;;;;;9.35;5.97;;;;;;;31.45;25.98;99762.13;5051413;28;20040;-59
2023/06/09 04:20:46;;;;;;;11.77;5.85;;;;;;;32.04;24.68;99758.38;5051958;28;20176;-62
2023/06/09 04:23:11;;;;;;;8.85;6.00;;;;;;;32.86;23.88;99751.47;5052268;28;20112;-61
2023/06/09 04:25:37;;;;;;;8.35;5.78;;;;;;;33.60;22.89;99750.44;5052523;28;20408;-62
2023/06/09 04:28:03;;;;;;;9.95;6.30;;;;;;;34.21;22.23;99755.00;5034226;28;20033;-60
2023/06/09 04:30:30;;;;;;;10.35;6.05;;;;;;;34.72;21.66;99757.84;5051418;28;20032;-60
2023/06/09 04:33:03;;;;;;;11.63;6.10;;;;;;;35.37;20.79;99759.63;5051542;28;20448;-60
2023/06/09 04:35:30;;;;;;;8.40;6.00;;;;;;;36.15;19.93;99756.91;5050277;28;20029;-60
2023/06/09 04:38:00;;;;;;;11.48;6.32;;;;;;;36.70;19.45;99766.84;5052099;28;20032;-60
2023/06/09 04:40:27;;;;;;;6.03;5.43;;;;;;;37.37;18.03;99764.13;5046793;28;20028;-61
2023/06/09 04:42:55;;;;;;;11.60;5.90;;;;;;;37.99;17.74;99757.47;5051289;28;20029;-60
2023/06/09 04:45:27;;;;;;;14.50;5.90;;;;;;;38.52;17.45;99749.66;5052326;28;20086;-60
2023/06/09 04:47:57;;;;;;;7.65;6.15;;;;;;;38.67;16.90;99754.91;5051866;28;20041;-61
2023/06/09 04:50:23;;;;;;;10.18;6.43;;;;;;;38.71;16.65;99747.53;5045927;28;20512;-61
2023/06/09 04:52:49;;;;;;;7.18;6.07;;;;;;;39.34;16.50;99742.13;5051737;28;20432;-60
2023/06/09 04:55:15;;;;;;;9.50;5.93;;;;;;;40.02;15.66;99734.72;5051681;28;20025;-61
2023/06/09 04:57:40;;;;;;;8.07;5.68;;;;;;;39.43;15.88;99749.75;5051082;28;20397;-60
2023/06/09 05:00:12;;;;;;;9.30;5.95;;;;;;;38.18;17.37;99760.97;5051871;28;20040;-61
2023/06/09 05:02:39;;;;;;;9.27;6.05;;;;;;;38.77;16.59;99742.66;5034433;28;20032;-61
2023/06/09 05:05:05;;;;;;;5.85;5.25;;;;;;;39.78;15.76;99738.72;5052020;28;20082;-60
2023/06/09 05:07:31;;;;;;;7.53;5.60;;;;;;;40.50;14.80;99752.66;5051788;28;20029;-62
2023/06/09 05:09:56;;;;;;;9.38;5.72;;;;;;;41.08;14.78;99752.53;5051790;28;20094;-60
2023/06/09 05:12:22;;;;;;;10.30;5.68;;;;;;;41.74;13.76;99742.19;5051640;28;20498;-61
2023/06/09 05:14:47;;;;;;;9.73;5.70;;;;;;;42.33;13.46;99751.81;5051836;28;20430;-60
2023/06/09 05:17:13;;;;;;;9.00;5.70;;;;;;;42.92;12.50;99738.00;5051900;28;20087;-61
2023/06/09 05:19:38;;;;;;;8.52;4.85;;;;;;;43.20;12.49;99743.84;5051063;28;20048;-59
2023/06/09 05:22:04;;;;;;;5.57;4.65;;;;;;;43.65;11.69;99744.19;5052027;28;20365;-61
2023/06/09 05:24:29;;;;;;;8.85;5.28;;;;;;;44.07;11.63;99741.16;5051859;28;20057;-61
2023/06/09 05:26:55;;;;;;;6.93;5.45;;;;;;;44.76;10.86;99748.16;5051258;28;20025;-63
2023/06/09 05:29:21;;;;;;;5.80;4.93;;;;;;;45.22;10.13;99748.66;5034476;28;20037;-59
2023/06/09 05:31:46;;;;;;;6.35;5.10;;;;;;;45.61;9.83;99733.16;5051491;28;20072;-61
2023/06/09 05:34:12;;;;;;;5.75;4.38;;;;;;;46.25;9.10;99741.59;5051526;28;20053;-59
2023/06/09 05:36:37;;;;;;;4.90;4.40;;;;;;;46.49;8.78;99736.84;5052096;28;20028;-62
2023/06/09 05:39:03;;;;;;;10.05;4.72;;;;;;;46.71;8.50;99736.16;5051455;28;20036;-60
2023/06/09 05:41:28;;;;;;;5.50;4.32;;;;;;;47.13;8.12;99739.44;5051305;28;20052;-60
2023/06/09 05:43:57;;;;;;;5.10;4.60;;;;;;;47.63;8.25;99727.38;5034280;28;20372;-60
2023/06/09 05:46:23;;;;;;;6.85;4.60;;;;;;;47.84;7.71;99739.09;5051707;28;20413;-61
2023/06/09 05:48:50;;;;;;;6.72;4.22;;;;;;;47.74;7.99;99722.69;5051035;28;20100;-60
2023/06/09 05:51:17;;;;;;;6.93;4.57;;;;;;;47.86;8.17;99745.19;5051516;28;20419;-60
2023/06/09 05:53:42;;;;;;;6.45;4.22;;;;;;;48.36;7.62;99732.97;5051808;28;20040;-61
2023/06/09 05:56:09;;;;;;;11.88;4.18;;;;;;;48.92;7.57;99739.00;5054772;28;20021;-61
2023/06/09 05:58:36;;;;;;;5.20;4.68;;;;;;;49.24;7.35;99732.88;5054633;28;20033;-61
2023/06/09 06:01:03;;;;;;;7.78;4.68;;;;;;;49.71;7.11;99738.19;5056010;28;20417;-62
2023/06/09 06:03:29;;;;;;;6.80;4.82;;;;;;;49.77;6.85;99730.91;5055736;28;20021;-60
2023/06/09 06:05:55;;;;;;;9.88;4.53;;;;;;;49.15;6.78;99706.78;5054808;28;20033;-61
2023/06/09 06:08:20;;;;;;;6.60;4.60;;;;;;;49.15;6.95;99735.19;5054892;28;20372;-61
2023/06/09 06:10:46;;;;;;;11.73;4.57;;;;;;;49.28;6.72;99730.03;5054679;28;20049;-61
2023/06/09 06:13:13;;;;;;;7.18;4.40;;;;;;;49.51;7.07;99718.53;5054906;28;20349;-61
2023/06/09 06:15:39;;;;;;;10.90;4.63;;;;;;;50.06;6.18;99730.31;5054591;28;20068;-65
2023/06/09 06:18:04;;;;;;;10.10;4.40;;;;;;;50.60;6.08;99716.38;5054707;28;20061;-61
2023/06/09 06:20:30;;;;;;;5.72;4.40;;;;;;;51.16;5.79;99710.47;5055586;28;20037;-59
2023/06/09 06:22:57;;;;;;;9.35;4.53;;;;;;;51.90;5.51;99723.53;5055128;28;20086;-60
2023/06/09 06:25:23;;;;;;;12.40;5.38;;;;;;;51.99;5.45;99698.25;5054290;28;20025;-59
2023/06/09 06:27:49;;;;;;;6.63;4.60;;;;;;;51.90;5.24;99704.34;5054931;28;20033;-61
2023/06/09 06:30:15;;;;;;;14.70;4.88;;;;;;;51.89;5.22;99714.13;5055333;28;20028;-61
2023/06/09 06:32:50;;;;;;;5.90;4.75;;;;;;;52.82;4.77;99725.72;5054776;28;20028;-64
2023/06/09 06:35:28;;;;;;;9.40;4.65;;;;;;;53.60;4.39;99721.91;5053641;28;20099;-61
2023/06/09 06:37:55;;;;;;;8.57;4.50;;;;;;;53.51;3.89;99722.41;5054466;28;20130;-62
2023/06/09 06:40:22;;;;;;;7.43;4.65;;;;;;;54.05;3.67;99716.19;5052433;28;20032;-71
2023/06/09 06:42:49;;;;;;;9.02;4.68;;;;;;;54.20;3.72;99713.16;5051630;28;20118;-64
2023/06/09 06:45:15;;;;;;;9.05;4.82;;;;;;;54.25;3.56;99718.41;5054050;28;20087;-63
2023/06/09 06:47:45;;;;;;;6.28;5.07;;;;;;;54.21;3.04;99709.88;5036901;28;20032;-64
2023/06/09 06:50:14;;;;;;;7.10;5.20;;;;;;;54.23;3.17;99700.81;5054035;28;20531;-64
2023/06/09 06:52:40;;;;;;;7.00;4.70;;;;;;;53.71;2.69;99704.69;5017517;28;20033;-64
2023/06/09 06:55:07;;;;;;;8.75;4.90;;;;;;;53.58;2.80;99710.88;5050301;28;20483;-62
2023/06/09 06:57:34;;;;;;;10.82;4.97;;;;;;;53.51;2.98;99714.63;5051082;28;20032;-63
2023/06/09 07:00:00;;;;;;;7.82;5.03;;;;;;;53.31;3.30;99696.41;5036106;28;20041;-69
2023/06/09 07:02:25;;;;;;;7.68;4.90;;;;;;;53.63;2.92;99698.97;5030889;28;20123;-63
2023/06/09 07:04:51;;;;;;;10.45;4.80;;;;;;;54.05;2.23;99687.56;5050428;28;20155;-64
2023/06/09 07:07:16;;;;;;;5.78;5.20;;;;;;;54.52;1.79;99714.84;5052202;28;20128;-65
2023/06/09 07:09:42;;;;;;;9.52;5.72;;;;;;;55.07;1.75;99700.56;5053320;28;20056;-63
2023/06/09 07:12:08;;;;;;;7.07;5.55;;;;;;;55.91;2.05;99711.44;5052948;28;20055;-64
2023/06/09 07:14:34;;;;;;;9.75;5.80;;;;;;;56.20;1.65;99719.53;5035887;28;20028;-62
2023/06/09 07:17:00;;;;;;;8.18;6.53;;;;;;;55.71;1.61;99712.25;5051505;28;20067;-67
2023/06/09 07:19:25;;;;;;;6.90;5.97;;;;;;;55.71;1.80;99715.09;5018436;28;20865;-65
2023/06/09 07:21:51;;;;;;;5.90;5.35;;;;;;;55.96;1.51;99713.81;5046027;28;20178;-62
2023/06/09 07:24:16;;;;;;;9.30;6.18;;;;;;;56.26;1.06;99714.88;5053051;28;20033;-59
2023/06/09 07:26:42;;;;;;;6.07;5.55;;;;;;;56.43;1.11;99724.38;5052816;28;20025;-62
2023/06/09 07:29:07;;;;;;;8.50;5.90;;;;;;;56.17;1.40;99711.75;5053148;28;20417;-62
2023/06/09 07:31:33;;;;;;;8.90;6.80;;;;;;;56.42;0.87;99721.94;5036362;28;20459;-61
2023/06/09 07:33:58;;;;;;;7.40;6.70;;;;;;;56.44;0.94;99711.63;5052766;28;20474;-61
2023/06/09 07:36:24;;;;;;;7.68;6.43;;;;;;;55.96;1.29;99719.56;5052895;28;20359;-61
2023/06/09 07:38:50;;;;;;;8.90;6.45;;;;;;;55.65;1.06;99722.56;5053278;28;20025;-61
2023/06/09 07:41:16;;;;;;;6.50;6.00;;;;;;;55.34;1.13;99719.78;5052391;28;20024;-61
2023/06/09 07:43:43;;;;;;;7.05;6.45;;;;;;;55.69;1.11;99723.31;5051939;28;20104;-61
2023/06/09 07:46:10;;;;;;;7.55;6.38;;;;;;;55.95;0.84;99712.16;5034139;28;20025;-61
2023/06/09 07:48:37;;;;;;;10.25;6.20;;;;;;;56.34;0.50;99715.56;5035774;28;20025;-67
2023/06/09 07:51:03;;;;;;;12.40;7.15;;;;;;;56.71;0.48;99716.41;5052558;28;20043;-56
2023/06/09 07:53:29;;;;;;;10.02;7.47;;;;;;;57.00;0.69;99709.19;5052471;28;20108;-60
2023/06/09 07:55:54;;;;;;;7.47;6.88;;;;;;;57.10;0.44;99699.47;5052925;28;20060;-60
2023/06/09 07:58:20;;;;;;;9.30;7.57;;;;;;;56.65;0.19;99712.44;5053055;28;20364;-60
2023/06/09 08:00:46;;;;;;;8.52;7.85;;;;;;;56.10;0.50;99721.34;5052584;28;20033;-60
2023/06/09 08:03:11;;;;;;;8.63;7.72;;;;;;;55.21;0.36;99717.53;5052480;28;20021;-58
2023/06/09 08:05:37;;;;;;;8.70;7.68;;;;;;;54.56;0.68;99718.47;5052526;28;20068;-57
2023/06/09 08:08:03;;;;;;;8.02;6.75;;;;;;;54.20;1.12;99710.28;5052957;28;20032;-54
2023/06/09 08:10:29;;;;;;;8.10;6.15;;;;;;;53.37;1.41;99717.63;5052376;28;20059;-60
2023/06/09 08:12:54;;;;;;;6.72;5.45;;;;;;;52.68;1.66;99712.31;5051812;28;20069;-55
2023/06/09 08:15:20;;;;;;;5.68;5.22;;;;;;;51.71;2.34;99717.03;5052585;28;20075;-58
2023/06/09 08:17:46;;;;;;;6.00;5.50;;;;;;;50.83;2.14;99713.22;5051257;28;20115;-51
2023/06/09 08:20:12;;;;;;;8.32;5.05;;;;;;;49.51;3.09;99718.53;5051943;28;20043;-60
2023/06/09 08:22:37;;;;;;;12.00;4.72;;;;;;;47.24;3.27;99699.94;5051350;28;20043;-64
2023/06/09 08:25:03;;;;;;;5.75;4.80;;;;;;;44.40;4.99;99708.34;5050278;28;20901;-63
2023/06/09 08:27:30;;;;;;;4.65;4.18;;;;;;;41.42;6.69;99714.31;5044693;28;20028;-63
2023/06/09 08:29:55;;;;;;;7.57;4.15;;;;;;;39.15;7.88;99713.50;5050632;28;20048;-58
2023/06/09 08:32:21;;;;;;;5.63;4.72;;;;;;;37.40;9.22;99722.47;5049645;28;20040;-63
2023/06/09 08:34:47;;;;;;;9.10;4.75;;;;;;;36.05;10.26;99715.25;5050697;28;20429;-62
2023/06/09 08:37:12;;;;;;;7.32;4.75;;;;;;;34.88;10.86;99717.72;5050531;28;20053;-62
2023/06/09 08:39:38;;;;;;;5.85;4.60;;;;;;;33.95;11.56;99726.50;5050476;28;20040;-60
2023/06/09 08:42:11;;;;;;;6.47;4.60;;;;;;;33.06;11.76;99720.22;5050900;28;20033;-60
2023/06/09 08:44:40;;;;;;;10.57;4.60;;;;;;;32.13;12.91;99727.41;5052853;28;20021;-57
2023/06/09 08:47:08;;;;;;;7.15;4.68;;;;;;;31.57;13.62;99721.25;5052224;28;20032;-58
2023/06/09 08:49:35;;;;;;;6.90;4.35;;;;;;;31.07;13.87;99735.22;5050998;28;20440;-62
2023/06/09 08:52:03;;;;;;;7.03;4.80;;;;;;;30.65;14.58;99711.09;5051710;28;20037;-60
2023/06/09 08:54:30;;;;;;;5.95;4.82;;;;;;;30.17;15.17;99721.81;5052465;28;20045;-61
2023/06/09 08:56:56;;;;;;;8.98;4.85;;;;;;;29.32;15.41;99728.31;5051287;28;20029;-57
2023/06/09 08:59:22;;;;;;;6.85;4.75;;;;;;;28.97;16.26;99730.19;5051079;28;20039;-60
2023/06/09 09:01:49;;;;;;;7.20;4.75;;;;;;;28.72;16.42;99719.50;5051387;28;20036;-58
2023/06/09 09:04:16;;;;;;;9.10;4.95;;;;;;;28.40;16.35;99690.56;5034247;28;20021;-60
2023/06/09 09:06:41;;;;;;;8.80;5.00;;;;;;;28.54;17.12;99726.06;5051746;28;20048;-66
2023/06/09 09:09:07;;;;;;;5.82;4.60;;;;;;;28.50;16.99;99712.78;5051744;28;20132;-61
2023/06/09 09:11:35;;;;;;;5.30;4.45;;;;;;;28.27;16.40;99723.88;5051204;28;20119;-59
2023/06/09 09:14:10;;;;;;;5.75;4.50;;;;;;;27.97;16.73;99708.34;5051724;28;20048;-59
2023/06/09 09:16:36;;;;;;;6.03;4.45;;;;;;;27.91;17.23;99724.75;5051340;28;20033;-59
2023/06/09 09:19:03;;;;;;;7.88;4.43;;;;;;;27.94;17.73;99723.44;5051649;28;20040;-61
2023/06/09 09:21:29;;;;;;;4.60;4.20;;;;;;;27.96;17.25;99726.78;5051294;28;20119;-61
2023/06/09 09:24:01;;;;;;;8.05;4.60;;;;;;;27.93;17.45;99722.59;5051422;28;20112;-60
2023/06/09 09:26:29;;;;;;;9.80;5.43;;;;;;;27.98;17.29;99723.81;5051855;28;20407;-70
2023/06/09 09:28:56;;;;;;;6.35;5.07;;;;;;;28.08;17.65;99722.09;5033994;28;20066;-61
2023/06/09 09:31:31;;;;;;;7.00;4.80;;;;;;;28.34;17.07;99735.59;5040222;28;20072;-61
2023/06/09 09:33:57;;;;;;;5.28;4.63;;;;;;;28.32;17.47;99721.22;5035826;28;20025;-59
2023/06/09 09:36:23;;;;;;;5.28;4.30;;;;;;;28.26;17.16;99716.72;5035835;28;20536;-59
2023/06/09 09:38:49;;;;;;;5.88;4.60;;;;;;;28.18;17.30;99704.16;5035202;28;20034;-62
2023/06/09 09:41:14;;;;;;;4.43;4.03;;;;;;;28.14;17.61;99714.78;5052922;28;20108;-61
2023/06/09 09:43:41;;;;;;;5.75;5.13;;;;;;;28.27;16.92;99708.19;5055702;28;20036;-61
2023/06/09 09:46:08;;;;;;;6.32;5.25;;;;;;;28.48;16.82;99712.22;5055676;28;20029;-61
2023/06/09 09:48:38;;;;;;;5.88;4.57;;;;;;;28.57;16.91;99712.63;5050076;28;20448;-61
2023/06/09 09:51:06;;;;;;;6.30;5.10;;;;;;;28.72;16.92;99708.50;5055759;28;20078;-61
2023/06/09 09:53:31;;;;;;;5.90;4.80;;;;;;;28.87;16.93;99694.19;5037410;28;20409;-60
2023/06/09 09:56:00;;;;;;;7.13;4.55;;;;;;;29.02;16.42;99702.72;5055366;28;20115;-61
2023/06/09 09:58:34;;;;;;;7.32;4.70;;;;;;;29.11;16.01;99696.78;5053398;28;20083;-61
2023/06/09 10:01:04;;;;;;;6.45;4.60;;;;;;;29.06;15.96;99697.56;5037957;28;20124;-62
2023/06/09 10:03:31;;;;;;;9.13;4.50;;;;;;;28.97;16.07;99691.63;5055412;28;20102;-61
2023/06/09 10:05:59;;;;;;;6.68;4.93;;;;;;;28.97;16.25;99688.00;5037619;28;20392;-60
2023/06/09 10:08:30;;;;;;;8.15;4.80;;;;;;;28.73;17.19;99660.59;5055062;28;20108;-62
2023/06/09 10:10:59;;;;;;;7.53;4.68;;;;;;;28.82;17.29;99683.09;5055361;28;20083;-60
2023/06/09 10:13:26;;;;;;;7.28;4.50;;;;;;;28.81;17.23;99681.41;5053654;28;20458;-63
2023/06/09 10:15:53;;;;;;;7.00;4.60;;;;;;;28.69;17.11;99681.44;5052851;28;20029;-71
2023/06/09 10:18:20;;;;;;;7.43;4.35;;;;;;;28.38;16.54;99683.63;5036523;28;20058;-57
2023/06/09 10:20:50;;;;;;;5.88;4.22;;;;;;;28.13;17.52;99680.09;5054941;28;20061;-60
2023/06/09 10:23:16;;;;;;;8.13;4.53;;;;;;;28.06;17.66;99669.22;5054843;28;20037;-58
2023/06/09 10:25:42;;;;;;;4.55;4.00;;;;;;;27.85;17.11;99667.97;5054726;28;20630;-59
2023/06/09 10:28:10;;;;;;;5.85;4.28;;;;;;;27.86;18.32;99671.56;5054263;28;20449;-58
2023/06/09 10:30:36;;;;;;;6.75;4.10;;;;;;;27.93;17.85;99664.81;5054420;28;20036;-60
2023/06/09 10:33:14;;;;;;;5.85;4.50;;;;;;;28.18;17.41;99665.63;5033016;28;20040;-61
2023/06/09 10:35:43;;;;;;;5.85;4.20;;;;;;;28.11;17.89;99662.97;5036781;28;20036;-62
2023/06/09 10:38:31;;;;;;;8.38;4.50;;;;;;;28.18;17.65;99660.94;5035197;28;20041;-61
2023/06/09 10:40:59;;;;;;;8.00;4.43;;;;;;;28.19;17.30;99656.28;5036043;28;20057;-61
2023/06/09 10:43:33;;;;;;;5.60;4.40;;;;;;;28.19;17.89;99646.09;5053866;28;20037;-61
2023/06/09 10:45:58;;;;;;;5.30;4.07;;;;;;;28.28;17.94;99643.81;5053653;28;20128;-62
2023/06/09 10:48:43;;;;;;;5.60;3.83;;;;;;;28.40;18.17;99660.25;5036509;28;20039;-61
2023/06/09 10:51:27;;;;;;;5.03;4.25;;;;;;;28.39;18.04;99653.09;5054524;28;20448;-60
2023/06/09 10:54:07;;;;;;;6.68;4.35;;;;;;;28.44;17.75;99642.16;5053964;28;20041;-62
2023/06/09 10:56:40;;;;;;;5.05;3.90;;;;;;;28.20;18.41;99633.19;5053645;28;20029;-60
2023/06/09 10:59:26;;;;;;;4.63;4.13;;;;;;;28.08;18.24;99628.53;5036238;28;20063;-60
2023/06/09 11:01:59;;;;;;;6.05;4.05;;;;;;;28.22;17.69;99622.78;5053685;28;20033;-60
2023/06/09 11:04:37;;;;;;;7.38;4.50;;;;;;;28.21;17.44;99619.19;5053894;28;20029;-61
2023/06/09 11:07:14;;;;;;;5.22;4.38;;;;;;;28.09;17.82;99626.63;5035809;28;20025;-59
2023/06/09 11:10:00;;;;;;;7.30;4.20;;;;;;;28.18;17.53;99622.41;5035870;28;20352;-62
2023/06/09 11:12:46;;;;;;;7.15;4.18;;;;;;;28.28;17.42;99623.72;5052594;28;20365;-61
2023/06/09 11:15:15;;;;;;;5.43;4.18;;;;;;;28.22;18.23;99623.63;5051298;28;20445;-60
2023/06/09 11:17:49;;;;;;;6.15;4.07;;;;;;;28.23;18.32;99618.94;5052981;28;20029;-60
2023/06/09 11:20:20;;;;;;;7.43;3.85;;;;;;;28.10;17.60;99609.03;5052949;28;20048;-64
2023/06/09 11:22:48;;;;;;;6.30;3.45;;;;;;;28.11;17.21;99605.19;5051011;28;20029;-62
2023/06/09 11:25:19;;;;;;;8.55;3.90;;;;;;;28.15;17.02;99609.16;5052728;28;20303;-63
2023/06/09 11:27:59;;;;;;;7.88;3.72;;;;;;;28.21;18.19;99608.19;5052557;28;20108;-64
2023/06/09 11:30:29;;;;;;;4.43;3.67;;;;;;;28.16;17.68;99613.56;5042907;28;20065;-61
2023/06/09 11:33:01;;;;;;;5.97;3.85;;;;;;;28.17;17.81;99612.50;5053183;28;20428;-60
2023/06/09 11:35:34;;;;;;;5.75;3.80;;;;;;;28.05;17.81;99618.00;5053445;28;20037;-59
2023/06/09 11:38:08;;;;;;;5.70;3.45;;;;;;;28.04;18.26;99621.03;5053082;28;20036;-61
2023/06/09 11:40:39;;;;;;;7.38;3.60;;;;;;;27.93;17.99;99607.03;5042278;28;20037;-60
2023/06/09 11:43:09;;;;;;;4.57;4.03;;;;;;;27.86;18.58;99592.59;5049390;28;20817;-59
2023/06/09 11:45:36;;;;;;;6.05;3.80;;;;;;;27.61;17.75;99574.50;5053152;28;20131;-60
2023/06/09 11:48:04;;;;;;;7.13;4.28;;;;;;;27.82;17.20;99605.19;5035364;28;20040;-59
2023/06/09 11:50:35;;;;;;;6.22;3.75;;;;;;;27.98;17.43;99622.00;5052849;28;20028;-57
2023/06/09 11:53:07;;;;;;;4.63;3.95;;;;;;;27.94;17.51;99627.16;5052447;28;20067;-59
2023/06/09 11:55:33;;;;;;;35.72;5.35;;;;;;;27.53;19.97;99643.63;5053114;28;20044;-59
2023/06/09 11:57:59;;;;;;;62.00;6.32;;;;;;;27.17;22.54;99667.50;5051995;28;20098;-63
2023/06/09 12:00:30;;;;;;;43.55;6.15;;;;;;;26.72;24.99;99693.53;5033119;28;20048;-60
2023/06/09 12:02:57;;;;;;;56.30;7.00;;;;;;;26.13;26.94;99696.81;5046507;28;20039;-58
2023/06/09 12:05:26;;;;;;;62.55;6.32;;;;;;;25.73;28.85;99698.13;5051014;28;20412;-57
2023/06/09 12:07:53;;;;;;;41.13;5.88;;;;;;;25.55;29.41;99702.50;5033293;28;20025;-60
2023/06/09 12:10:22;;;;;;;23.60;5.05;;;;;;;25.36;30.06;99694.25;5029354;28;20140;-61
2023/06/09 12:12:49;;;;;;;23.13;5.30;;;;;;;25.07;31.44;99709.44;5012377;28;20038;-60
2023/06/09 12:15:20;;;;;;;24.33;5.35;;;;;;;24.84;31.75;99705.41;4992994;28;20030;-60
2023/06/09 12:17:51;;;;;;;32.40;4.88;;;;;;;24.42;32.79;99697.63;5011998;28;20355;-60
2023/06/09 12:20:20;;;;;;;15.45;4.38;;;;;;;24.13;33.29;99702.59;5011516;28;20041;-62
2023/06/09 12:22:45;;;;;;;14.50;4.22;;;;;;;23.86;34.18;99702.63;5011682;28;20037;-60
2023/06/09 12:25:28;;;;;;;15.40;4.10;;;;;;;23.93;34.00;99703.47;5012615;28;20430;-59
2023/06/09 12:27:55;;;;;;;15.82;4.07;;;;;;;23.83;34.81;99719.47;5012448;28;20096;-59
2023/06/09 12:30:35;;;;;;;27.33;5.00;;;;;;;23.90;34.23;99720.31;5009552;28;20033;-59
2023/06/09 12:33:12;;;;;;;10.68;4.20;;;;;;;23.85;34.55;99711.06;5010153;28;20346;-61
2023/06/09 12:35:43;;;;;;;12.93;4.40;;;;;;;23.56;35.21;99724.97;5010764;28;20038;-64
2023/06/09 12:38:15;;;;;;;7.65;3.97;;;;;;;23.31;35.81;99733.00;5026321;28;20084;-65
2023/06/09 12:40:48;;;;;;;16.35;4.38;;;;;;;23.01;36.01;99728.75;5010531;28;20092;-64
2023/06/09 12:43:16;;;;;;;11.95;4.28;;;;;;;22.69;36.52;99692.16;5009315;28;20033;-64